Time;durP1;ratioP1;P1;durP2;ratioP2;P2;SDS_P1;SDS_P2;PMS_P1;PMS_P2;Temp;Humidity;BMP_temperature;BMP_pressure;BME280_temperature;BME280_humidity;BME280_pressure;Samples;Min_cycle;Max_cycle;Signal;HPM_P1;HPM_P2
2021/12/16 00:02:12;;;;;;;13.13;6.93;;;;;;;;;;4811714;29;32530;-68
2021/12/16 00:07:31;;;;;;;6.78;6.28;;;;;;;;;;4799748;29;33502;-69
2021/12/16 00:10:04;;;;;;;7.50;6.80;;;;;;;;;;4812600;29;32524;-69
2021/12/16 00:29:55;;;;;;;10.25;6.10;;;;;;;;;;4812653;29;32380;-69
2021/12/16 00:32:34;;;;;;;7.43;6.72;;;;;;;;;;4812347;29;32469;-67
2021/12/16 00:35:06;;;;;;;7.30;6.57;;;;;;;;;;4812638;29;32278;-70
2021/12/16 00:37:34;;;;;;;7.03;6.43;;;;;;;;;;4812455;29;32578;-67
2021/12/16 00:40:04;;;;;;;7.47;6.35;;;;;;;;;;4811027;29;33999;-70
2021/12/16 00:42:40;;;;;;;7.78;6.72;;;;;;;;;;4811568;29;32495;-68
2021/12/16 00:47:58;;;;;;;6.72;6.13;;;;;;;;;;4808356;29;32317;-68
2021/12/16 00:56:10;;;;;;;6.50;6.05;;;;;;;;;;4807838;29;32488;-68
2021/12/16 00:58:45;;;;;;;7.40;6.70;;;;;;;;;;4811621;29;32508;-69
2021/12/16 01:01:27;;;;;;;7.03;6.40;;;;;;;;;;4812588;29;32442;-70
2021/12/16 01:04:15;;;;;;;6.32;5.82;;;;;;;;;;4811652;29;34547;-68
2021/12/16 01:06:59;;;;;;;7.03;6.43;;;;;;;;;;4811244;29;32520;-68
2021/12/16 01:34:56;;;;;;;7.75;7.03;;;;;;;;;;4811534;29;32245;-68
2021/12/16 01:40:24;;;;;;;8.10;7.47;;;;;;;;;;4811398;29;32440;-68
2021/12/16 01:46:22;;;;;;;8.80;8.00;;;;;;;;;;4810255;29;32464;-68
2021/12/16 01:51:55;;;;;;;8.25;7.47;;;;;;;;;;4791301;29;32431;-69
2021/12/16 01:54:40;;;;;;;7.80;7.22;;;;;;;;;;4811778;29;35840;-70
2021/12/16 01:57:17;;;;;;;8.27;7.68;;;;;;;;;;4807619;29;32321;-69
2021/12/16 01:59:56;;;;;;;7.55;6.85;;;;;;;;;;4807058;29;32478;-70
2021/12/16 02:02:35;;;;;;;7.57;6.97;;;;;;;;;;4811477;29;32407;-69
2021/12/16 02:05:18;;;;;;;8.30;7.60;;;;;;;;;;4811137;29;32454;-68
2021/12/16 02:08:09;;;;;;;8.05;7.28;;;;;;;;;;4811567;29;32593;-68
2021/12/16 02:10:44;;;;;;;8.25;7.57;;;;;;;;;;4811463;29;32311;-69
2021/12/16 02:13:36;;;;;;;7.93;7.35;;;;;;;;;;4811231;29;32365;-69
2021/12/16 02:27:30;;;;;;;8.05;7.45;;;;;;;;;;4811468;29;32638;-67
2021/12/16 02:32:54;;;;;;;8.07;7.38;;;;;;;;;;4808928;29;32277;-68
2021/12/16 02:35:28;;;;;;;8.25;7.45;;;;;;;;;;4810847;29;32416;-70
2021/12/16 02:37:59;;;;;;;10.13;7.90;;;;;;;;;;4811105;29;32158;-69
2021/12/16 02:40:29;;;;;;;8.73;7.95;;;;;;;;;;4810727;29;32392;-67
2021/12/16 02:43:01;;;;;;;8.93;7.72;;;;;;;;;;4808617;29;34924;-71
2021/12/16 02:51:09;;;;;;;9.23;8.43;;;;;;;;;;4806380;29;32633;-69
2021/12/16 02:53:43;;;;;;;8.48;7.80;;;;;;;;;;4810439;29;34563;-68
2021/12/16 02:56:12;;;;;;;8.93;8.00;;;;;;;;;;4810571;29;32358;-69
2021/12/16 02:58:44;;;;;;;8.93;8.07;;;;;;;;;;4809215;29;32361;-69
2021/12/16 03:01:18;;;;;;;8.88;8.10;;;;;;;;;;4804606;29;32384;-68
2021/12/16 03:03:47;;;;;;;9.13;8.27;;;;;;;;;;4809637;29;32470;-69
2021/12/16 03:06:15;;;;;;;8.13;7.28;;;;;;;;;;4811862;29;35801;-70
2021/12/16 03:08:44;;;;;;;8.20;7.50;;;;;;;;;;4813072;29;32385;-72
2021/12/16 03:11:22;;;;;;;8.65;7.95;;;;;;;;;;4812568;29;32527;-70
2021/12/16 03:14:06;;;;;;;7.20;6.60;;;;;;;;;;4810949;29;32265;-69
2021/12/16 03:16:46;;;;;;;8.90;8.07;;;;;;;;;;4812915;29;35615;-69
2021/12/16 03:19:20;;;;;;;8.50;7.80;;;;;;;;;;4796259;29;32380;-68
2021/12/16 03:21:53;;;;;;;8.02;7.43;;;;;;;;;;4812695;29;32333;-67
2021/12/16 03:30:23;;;;;;;14.35;9.15;;;;;;;;;;4810727;29;34426;-67
2021/12/16 03:35:39;;;;;;;12.85;7.93;;;;;;;;;;4756037;29;32433;-68
2021/12/16 03:38:10;;;;;;;8.93;8.07;;;;;;;;;;4810349;29;32372;-69
2021/12/16 03:40:41;;;;;;;9.18;7.97;;;;;;;;;;4811839;29;35437;-68
2021/12/16 03:43:13;;;;;;;9.90;8.48;;;;;;;;;;4810512;29;32640;-69
2021/12/16 03:48:34;;;;;;;8.63;7.82;;;;;;;;;;4812960;29;32626;-68
2021/12/16 03:51:05;;;;;;;9.18;8.00;;;;;;;;;;4810905;29;32391;-67
2021/12/16 03:53:33;;;;;;;9.27;8.40;;;;;;;;;;4813046;29;33942;-68
2021/12/16 03:56:04;;;;;;;12.20;8.38;;;;;;;;;;4811263;29;32537;-69
2021/12/16 03:58:32;;;;;;;9.87;8.30;;;;;;;;;;4812868;29;32417;-69
2021/12/16 04:01:04;;;;;;;9.32;8.32;;;;;;;;;;4813225;29;32462;-69
2021/12/16 04:03:33;;;;;;;9.43;8.23;;;;;;;;;;4813093;29;35191;-69
2021/12/16 04:06:01;;;;;;;9.07;8.25;;;;;;;;;;4812628;29;32459;-69
2021/12/16 04:08:29;;;;;;;8.45;7.55;;;;;;;;;;4812870;29;32319;-69
2021/12/16 04:11:06;;;;;;;8.73;7.93;;;;;;;;;;4812675;29;32404;-68
2021/12/16 04:13:40;;;;;;;8.57;7.78;;;;;;;;;;4811214;29;32808;-68
2021/12/16 04:16:09;;;;;;;8.98;8.18;;;;;;;;;;4800418;29;34307;-68
2021/12/16 04:18:37;;;;;;;7.78;7.18;;;;;;;;;;4812541;29;32134;-69
2021/12/16 04:21:05;;;;;;;8.63;7.90;;;;;;;;;;4810687;29;32598;-68
2021/12/16 04:23:33;;;;;;;8.00;7.30;;;;;;;;;;4812242;29;32494;-68
2021/12/16 04:26:02;;;;;;;8.43;7.72;;;;;;;;;;4811785;29;35686;-69
2021/12/16 04:28:31;;;;;;;8.07;7.22;;;;;;;;;;4810794;29;32482;-68
2021/12/16 04:31:00;;;;;;;10.60;7.85;;;;;;;;;;4812158;29;32365;-69
2021/12/16 04:33:29;;;;;;;8.43;7.40;;;;;;;;;;4811278;29;32727;-68
2021/12/16 04:35:57;;;;;;;7.95;7.28;;;;;;;;;;4811585;29;32635;-69
2021/12/16 04:38:25;;;;;;;8.25;7.55;;;;;;;;;;4811957;29;34008;-68
2021/12/16 04:40:53;;;;;;;7.57;6.97;;;;;;;;;;4810083;29;32833;-68
2021/12/16 04:43:33;;;;;;;8.55;7.18;;;;;;;;;;4811777;29;32312;-67
2021/12/16 04:46:01;;;;;;;7.30;6.70;;;;;;;;;;4811115;29;32282;-67
2021/12/16 04:48:29;;;;;;;7.60;6.90;;;;;;;;;;4812317;29;35255;-67
2021/12/16 04:50:57;;;;;;;7.55;6.85;;;;;;;;;;4812391;29;32365;-68
2021/12/16 04:53:25;;;;;;;8.43;7.57;;;;;;;;;;4812586;29;32383;-68
2021/12/16 04:55:53;;;;;;;8.75;6.53;;;;;;;;;;4812711;29;32627;-67
2021/12/16 04:58:23;;;;;;;7.88;7.18;;;;;;;;;;4812193;29;32250;-68
2021/12/16 05:00:51;;;;;;;8.25;7.53;;;;;;;;;;4812030;29;34623;-69
2021/12/16 05:03:20;;;;;;;7.32;6.65;;;;;;;;;;4812145;29;32416;-68
2021/12/16 05:05:48;;;;;;;7.00;6.50;;;;;;;;;;4812207;29;32376;-68
2021/12/16 05:08:16;;;;;;;6.97;6.47;;;;;;;;;;4812242;29;32592;-68
2021/12/16 05:10:45;;;;;;;8.32;7.13;;;;;;;;;;4812880;29;35902;-68
2021/12/16 05:13:15;;;;;;;9.60;7.00;;;;;;;;;;4812793;29;32384;-68
2021/12/16 05:15:45;;;;;;;7.38;6.75;;;;;;;;;;4812305;29;32301;-68
2021/12/16 05:18:20;;;;;;;7.53;6.95;;;;;;;;;;4812257;29;32331;-68
2021/12/16 05:20:48;;;;;;;6.88;6.28;;;;;;;;;;4812476;29;32312;-67
2021/12/16 05:28:48;;;;;;;7.72;7.05;;;;;;;;;;4808183;29;32566;-67
2021/12/16 05:31:18;;;;;;;7.05;6.45;;;;;;;;;;4812311;29;32443;-68
2021/12/16 05:33:47;;;;;;;7.68;6.90;;;;;;;;;;4811170;29;34953;-67
2021/12/16 05:36:15;;;;;;;8.43;7.63;;;;;;;;;;4811803;29;32237;-68
2021/12/16 05:38:43;;;;;;;7.45;6.85;;;;;;;;;;4812141;29;32306;-67
2021/12/16 05:41:15;;;;;;;9.55;7.13;;;;;;;;;;4809761;29;32468;-68
2021/12/16 05:43:44;;;;;;;9.00;8.30;;;;;;;;;;4811931;29;32357;-68
2021/12/16 05:46:14;;;;;;;8.70;8.00;;;;;;;;;;4811954;29;34776;-69
2021/12/16 05:48:46;;;;;;;7.28;6.68;;;;;;;;;;4811231;29;32604;-69
2021/12/16 05:51:19;;;;;;;8.15;7.10;;;;;;;;;;4812348;29;32562;-69
2021/12/16 05:53:48;;;;;;;7.28;6.57;;;;;;;;;;4812409;29;32329;-67
2021/12/16 05:56:16;;;;;;;7.85;7.15;;;;;;;;;;4812009;29;35200;-68
2021/12/16 05:58:45;;;;;;;7.85;7.20;;;;;;;;;;4811524;29;32415;-68
2021/12/16 06:01:20;;;;;;;9.27;8.57;;;;;;;;;;4811751;29;32420;-68
2021/12/16 06:03:51;;;;;;;9.32;8.20;;;;;;;;;;4811559;29;32443;-69
2021/12/16 06:06:21;;;;;;;8.45;7.65;;;;;;;;;;4812011;29;32151;-68
2021/12/16 06:08:49;;;;;;;8.80;7.95;;;;;;;;;;4811437;29;34513;-67
2021/12/16 06:11:22;;;;;;;9.13;8.40;;;;;;;;;;4811434;29;32484;-68
2021/12/16 06:14:03;;;;;;;10.10;8.18;;;;;;;;;;4811440;29;32352;-68
2021/12/16 06:27:37;;;;;;;7.97;7.38;;;;;;;;;;4811240;29;32683;-67
2021/12/16 06:30:08;;;;;;;13.60;7.60;;;;;;;;;;4811571;29;32377;-68
2021/12/16 06:32:36;;;;;;;8.48;7.75;;;;;;;;;;4811261;29;34008;-68
2021/12/16 06:35:09;;;;;;;9.07;8.18;;;;;;;;;;4811368;29;32306;-67
2021/12/16 06:37:37;;;;;;;12.85;8.13;;;;;;;;;;4810959;29;32436;-66
2021/12/16 06:40:06;;;;;;;8.82;7.80;;;;;;;;;;4811752;29;32386;-67
2021/12/16 06:42:38;;;;;;;10.52;7.68;;;;;;;;;;4810829;29;35861;-67
2021/12/16 06:45:13;;;;;;;8.90;8.20;;;;;;;;;;4811409;29;32388;-67
2021/12/16 06:47:45;;;;;;;7.93;7.30;;;;;;;;;;4810316;29;32380;-67
2021/12/16 06:50:26;;;;;;;9.30;7.75;;;;;;;;;;4810921;29;32633;-67
2021/12/16 06:52:57;;;;;;;11.20;7.35;;;;;;;;;;4811105;29;32396;-68
2021/12/16 06:55:34;;;;;;;11.63;7.05;;;;;;;;;;4811101;29;33947;-67
2021/12/16 06:58:12;;;;;;;8.75;7.53;;;;;;;;;;4810530;29;32407;-68
2021/12/16 07:00:44;;;;;;;7.30;6.70;;;;;;;;;;4810457;29;32569;-69
2021/12/16 07:03:19;;;;;;;7.60;6.90;;;;;;;;;;4810901;29;32435;-67
2021/12/16 07:05:53;;;;;;;7.93;7.25;;;;;;;;;;4810759;29;34778;-67
2021/12/16 07:08:24;;;;;;;7.50;6.63;;;;;;;;;;4810495;29;32206;-68
2021/12/16 07:10:55;;;;;;;6.90;6.40;;;;;;;;;;4810933;29;32934;-68
2021/12/16 07:13:31;;;;;;;7.25;6.65;;;;;;;;;;4810694;29;32484;-69
2021/12/16 07:16:00;;;;;;;6.82;6.22;;;;;;;;;;4811175;29;32384;-68
2021/12/16 07:18:28;;;;;;;15.10;7.50;;;;;;;;;;4810477;29;35011;-68
2021/12/16 07:20:57;;;;;;;7.80;7.13;;;;;;;;;;4810730;29;32403;-68
2021/12/16 07:23:25;;;;;;;7.93;7.10;;;;;;;;;;4810450;29;32427;-67
2021/12/16 07:25:53;;;;;;;7.38;6.70;;;;;;;;;;4810964;29;32190;-67
2021/12/16 07:28:21;;;;;;;8.32;6.93;;;;;;;;;;4810579;29;34099;-67
2021/12/16 07:30:50;;;;;;;7.88;6.93;;;;;;;;;;4810702;29;32392;-68
2021/12/16 07:33:18;;;;;;;7.72;6.95;;;;;;;;;;4810580;29;32381;-67
2021/12/16 07:35:48;;;;;;;7.32;6.57;;;;;;;;;;4810090;29;32557;-68
2021/12/16 07:38:19;;;;;;;11.10;7.05;;;;;;;;;;4810602;29;32403;-68
2021/12/16 07:40:50;;;;;;;8.32;7.50;;;;;;;;;;4810640;29;34178;-68
2021/12/16 07:43:30;;;;;;;8.13;7.43;;;;;;;;;;4809961;29;32260;-67
2021/12/16 07:45:58;;;;;;;10.40;7.00;;;;;;;;;;4809289;29;32353;-70
2021/12/16 07:48:28;;;;;;;10.98;7.00;;;;;;;;;;4810204;29;32396;-69
2021/12/16 07:51:01;;;;;;;9.45;7.05;;;;;;;;;;4812871;29;34628;-67
2021/12/16 07:53:31;;;;;;;8.40;7.70;;;;;;;;;;4811766;29;32532;-68
2021/12/16 07:56:00;;;;;;;8.02;7.10;;;;;;;;;;4812880;29;32367;-68
2021/12/16 07:58:28;;;;;;;10.52;7.15;;;;;;;;;;4812427;29;32399;-67
2021/12/16 08:00:56;;;;;;;7.35;6.65;;;;;;;;;;4813499;29;32229;-68
2021/12/16 08:03:26;;;;;;;8.15;7.35;;;;;;;;;;4813051;29;34030;-68
2021/12/16 08:05:59;;;;;;;7.53;6.93;;;;;;;;;;4813176;29;32286;-68
2021/12/16 08:08:27;;;;;;;7.40;6.82;;;;;;;;;;4813078;29;32392;-67
2021/12/16 08:10:58;;;;;;;7.28;6.63;;;;;;;;;;4796575;29;32338;-68
2021/12/16 08:13:26;;;;;;;7.80;7.10;;;;;;;;;;4813086;29;35240;-68
2021/12/16 08:15:54;;;;;;;7.97;6.93;;;;;;;;;;4812835;29;32394;-67
2021/12/16 08:18:22;;;;;;;7.28;6.68;;;;;;;;;;4812827;29;32364;-68
2021/12/16 08:20:50;;;;;;;7.75;6.85;;;;;;;;;;4812833;29;32321;-68
2021/12/16 08:23:18;;;;;;;9.25;7.32;;;;;;;;;;4812547;29;32317;-68
2021/12/16 08:25:46;;;;;;;8.73;7.35;;;;;;;;;;4812880;29;34825;-68
2021/12/16 08:28:16;;;;;;;7.82;6.80;;;;;;;;;;4813013;29;32433;-68
2021/12/16 08:30:49;;;;;;;8.55;6.50;;;;;;;;;;4812720;29;32475;-68
2021/12/16 08:33:18;;;;;;;6.80;6.30;;;;;;;;;;4813079;29;32472;-68
2021/12/16 08:35:48;;;;;;;7.22;6.60;;;;;;;;;;4812648;29;35339;-68
2021/12/16 08:38:20;;;;;;;7.88;6.40;;;;;;;;;;4812736;29;32432;-68
2021/12/16 08:40:50;;;;;;;;;;;;;;;;;;4812846;29;32289;-68
2021/12/16 08:43:20;;;;;;;7.03;6.53;;;;;;;;;;4811879;29;32305;-69
2021/12/16 08:45:49;;;;;;;7.35;6.72;;;;;;;;;;4810840;29;32512;-68
2021/12/16 08:48:17;;;;;;;9.55;7.07;;;;;;;;;;4811407;29;34058;-67
2021/12/16 08:50:50;;;;;;;8.30;7.20;;;;;;;;;;4811553;29;32549;-68
2021/12/16 08:53:20;;;;;;;11.35;6.32;;;;;;;;;;4812138;29;32445;-68
2021/12/16 08:55:49;;;;;;;8.30;6.55;;;;;;;;;;4812168;29;32456;-67
2021/12/16 08:58:22;;;;;;;7.30;6.57;;;;;;;;;;4811519;29;34799;-70
2021/12/16 09:00:55;;;;;;;9.98;6.30;;;;;;;;;;4812065;29;32323;-68
2021/12/16 09:03:23;;;;;;;7.65;7.03;;;;;;;;;;4812521;29;32373;-68
2021/12/16 09:05:52;;;;;;;7.68;7.05;;;;;;;;;;4812477;29;32333;-67
2021/12/16 09:08:20;;;;;;;7.57;6.80;;;;;;;;;;4812581;29;32433;-67
2021/12/16 09:10:48;;;;;;;8.43;7.32;;;;;;;;;;4812173;29;34544;-67
2021/12/16 09:13:17;;;;;;;7.82;6.90;;;;;;;;;;4811494;29;32361;-68
2021/12/16 09:15:51;;;;;;;7.82;7.13;;;;;;;;;;4812264;29;32399;-69
2021/12/16 09:18:24;;;;;;;6.93;6.43;;;;;;;;;;4812381;29;32352;-68
2021/12/16 09:20:53;;;;;;;11.60;7.78;;;;;;;;;;4811369;29;34533;-67
2021/12/16 09:23:21;;;;;;;8.55;7.85;;;;;;;;;;4811954;29;32164;-68
2021/12/16 09:25:51;;;;;;;7.68;6.97;;;;;;;;;;4811787;29;32352;-67
2021/12/16 09:28:22;;;;;;;8.30;7.60;;;;;;;;;;4811992;29;32584;-68
2021/12/16 09:30:52;;;;;;;8.57;7.88;;;;;;;;;;4812217;29;32313;-68
2021/12/16 09:33:22;;;;;;;8.35;7.65;;;;;;;;;;4811924;29;35284;-67
2021/12/16 09:35:53;;;;;;;8.18;7.57;;;;;;;;;;4812165;29;32329;-66
2021/12/16 09:38:23;;;;;;;7.57;6.88;;;;;;;;;;4812387;29;32560;-67
2021/12/16 09:40:54;;;;;;;7.88;7.18;;;;;;;;;;4811591;29;32363;-68
2021/12/16 09:43:25;;;;;;;;;;;;;;;;;;4811968;29;34047;-67
2021/12/16 09:45:59;;;;;;;8.15;7.47;;;;;;;;;;4812079;29;32336;-68
2021/12/16 09:48:28;;;;;;;7.32;6.72;;;;;;;;;;4812054;29;32510;-68
2021/12/16 09:50:56;;;;;;;8.25;7.18;;;;;;;;;;4811535;29;32472;-68
2021/12/16 09:53:24;;;;;;;8.05;7.30;;;;;;;;;;4811873;29;32489;-68
2021/12/16 09:55:58;;;;;;;8.60;7.00;;;;;;;;;;4811684;29;34073;-69
2021/12/16 09:58:27;;;;;;;8.02;7.32;;;;;;;;;;4811335;29;32736;-68
2021/12/16 10:00:58;;;;;;;7.95;7.38;;;;;;;;;;4811540;29;32373;-68
2021/12/16 10:03:27;;;;;;;8.95;8.10;;;;;;;;;;4811908;29;32435;-68
2021/12/16 10:05:56;;;;;;;7.47;6.88;;;;;;;;;;4812171;29;35558;-69
2021/12/16 10:08:24;;;;;;;7.50;7.00;;;;;;;;;;4811469;29;32514;-68
2021/12/16 10:10:52;;;;;;;7.32;6.68;;;;;;;;;;4811382;29;32310;-68
2021/12/16 10:13:30;;;;;;;7.50;6.90;;;;;;;;;;4810666;29;32153;-68
2021/12/16 10:18:45;;;;;;;9.30;7.20;;;;;;;;;;4811603;29;35049;-68
2021/12/16 10:21:14;;;;;;;8.07;7.57;;;;;;;;;;4811553;29;32419;-68
2021/12/16 10:23:45;;;;;;;7.05;6.35;;;;;;;;;;4811331;29;32569;-68
2021/12/16 10:26:18;;;;;;;7.55;6.95;;;;;;;;;;4803265;29;32241;-68
2021/12/16 10:28:50;;;;;;;7.95;7.35;;;;;;;;;;4792872;29;34728;-68
2021/12/16 10:31:26;;;;;;;6.72;6.13;;;;;;;;;;4793456;29;32519;-68
2021/12/16 10:33:57;;;;;;;6.93;6.43;;;;;;;;;;4792811;29;32388;-68
2021/12/16 10:36:28;;;;;;;6.80;6.20;;;;;;;;;;4793374;29;32422;-68
2021/12/16 10:39:01;;;;;;;7.83;7.23;;;;;;;;;;4793602;29;32537;-68
2021/12/16 10:41:34;;;;;;;7.00;6.40;;;;;;;;;;4791730;29;34593;-68
2021/12/16 10:44:08;;;;;;;6.75;6.30;;;;;;;;;;4796093;29;32423;-68
2021/12/16 10:46:42;;;;;;;6.78;5.95;;;;;;;;;;4811221;29;32411;-68
2021/12/16 10:49:13;;;;;;;6.82;6.18;;;;;;;;;;4811492;29;32305;-68
2021/12/16 10:51:43;;;;;;;7.45;6.95;;;;;;;;;;4811022;29;34025;-68
2021/12/16 10:54:21;;;;;;;7.05;6.50;;;;;;;;;;4810768;29;32155;-68
2021/12/16 10:57:00;;;;;;;6.28;5.88;;;;;;;;;;4810847;29;32235;-67
2021/12/16 10:59:33;;;;;;;6.13;5.72;;;;;;;;;;4810375;29;32431;-68
2021/12/16 11:02:10;;;;;;;6.70;6.20;;;;;;;;;;4810473;29;32445;-68
2021/12/16 11:04:44;;;;;;;6.40;5.80;;;;;;;;;;4810416;29;32685;-68
2021/12/16 11:07:20;;;;;;;8.77;5.82;;;;;;;;;;4810376;29;32799;-68
2021/12/16 11:10:02;;;;;;;6.28;5.88;;;;;;;;;;4810615;29;32450;-68
2021/12/16 11:12:44;;;;;;;6.15;5.75;;;;;;;;;;4810359;29;32470;-68
2021/12/16 11:15:19;;;;;;;6.13;5.72;;;;;;;;;;4810760;29;34826;-68
2021/12/16 11:17:53;;;;;;;5.70;5.30;;;;;;;;;;4810455;29;32496;-69
2021/12/16 11:20:30;;;;;;;6.55;6.15;;;;;;;;;;4810524;29;32290;-69
2021/12/16 11:23:04;;;;;;;5.97;5.57;;;;;;;;;;4810953;29;32454;-68
2021/12/16 11:25:36;;;;;;;5.50;5.10;;;;;;;;;;4812970;29;32180;-67
2021/12/16 11:28:18;;;;;;;6.25;5.65;;;;;;;;;;4813332;29;32568;-67
2021/12/16 11:30:54;;;;;;;6.25;5.85;;;;;;;;;;4813775;29;32303;-69
2021/12/16 11:33:32;;;;;;;5.88;5.47;;;;;;;;;;4813188;29;32326;-69
2021/12/16 11:36:10;;;;;;;5.97;5.57;;;;;;;;;;4813667;29;32227;-67
2021/12/16 11:38:42;;;;;;;5.18;4.85;;;;;;;;;;4813102;29;35362;-68
2021/12/16 11:41:31;;;;;;;6.00;5.05;;;;;;;;;;4813423;29;32486;-67
2021/12/16 11:44:16;;;;;;;5.72;5.43;;;;;;;;;;4812539;29;32456;-67
2021/12/16 11:46:46;;;;;;;6.10;5.60;;;;;;;;;;4813315;29;32403;-67
2021/12/16 11:49:26;;;;;;;5.45;5.05;;;;;;;;;;4813373;29;32137;-68
2021/12/16 11:52:00;;;;;;;5.43;5.03;;;;;;;;;;4813098;29;32436;-68
2021/12/16 11:54:33;;;;;;;5.07;4.68;;;;;;;;;;4813002;29;32373;-68
2021/12/16 11:57:07;;;;;;;4.85;4.55;;;;;;;;;;4813216;29;32421;-68
2021/12/16 11:59:41;;;;;;;4.75;4.43;;;;;;;;;;4812724;29;32330;-68
2021/12/16 12:02:27;;;;;;;5.20;4.90;;;;;;;;;;4812742;29;34020;-69
2021/12/16 12:05:17;;;;;;;5.13;4.82;;;;;;;;;;4813196;29;32128;-69
2021/12/16 12:07:50;;;;;;;4.63;4.32;;;;;;;;;;4812512;29;32239;-68
2021/12/16 12:10:42;;;;;;;4.57;4.28;;;;;;;;;;4812871;29;32311;-69
2021/12/16 12:13:14;;;;;;;4.88;4.57;;;;;;;;;;4812666;29;32433;-68
2021/12/16 12:15:56;;;;;;;4.40;4.00;;;;;;;;;;4812465;29;32434;-68
2021/12/16 12:18:37;;;;;;;4.45;4.15;;;;;;;;;;4812574;29;32253;-67
2021/12/16 12:21:37;;;;;;;4.03;3.83;;;;;;;;;;4812424;29;32467;-68
2021/12/16 12:24:11;;;;;;;4.28;3.97;;;;;;;;;;4770965;29;32194;-67
2021/12/16 12:26:45;;;;;;;4.38;4.18;;;;;;;;;;4812635;29;34068;-67
2021/12/16 12:29:17;;;;;;;4.38;4.07;;;;;;;;;;4812968;29;32440;-68
2021/12/16 12:31:48;;;;;;;3.95;3.75;;;;;;;;;;4812863;29;32381;-68
2021/12/16 12:34:16;;;;;;;4.07;3.78;;;;;;;;;;4812708;29;32314;-68
2021/12/16 12:36:49;;;;;;;3.70;3.50;;;;;;;;;;4812076;29;32263;-68
2021/12/16 12:39:21;;;;;;;3.90;3.60;;;;;;;;;;4812726;29;32450;-68
2021/12/16 12:41:49;;;;;;;4.20;3.90;;;;;;;;;;4811605;29;32420;-67
2021/12/16 12:44:18;;;;;;;3.90;3.60;;;;;;;;;;4812324;29;32379;-69
2021/12/16 12:46:46;;;;;;;3.72;3.53;;;;;;;;;;4812854;29;32300;-68
2021/12/16 12:49:19;;;;;;;5.28;3.50;;;;;;;;;;4812194;29;35568;-68
2021/12/16 12:51:51;;;;;;;4.22;3.92;;;;;;;;;;4812051;29;32544;-67
2021/12/16 12:54:25;;;;;;;3.15;2.92;;;;;;;;;;4812681;29;32366;-68
2021/12/16 12:56:56;;;;;;;4.20;3.80;;;;;;;;;;4812555;29;32450;-68
2021/12/16 12:59:35;;;;;;;3.75;3.40;;;;;;;;;;4811560;29;32375;-68
2021/12/16 13:02:16;;;;;;;3.38;3.17;;;;;;;;;;4812047;29;32362;-68
2021/12/16 13:04:51;;;;;;;3.33;3.13;;;;;;;;;;4812684;29;32232;-68
2021/12/16 13:07:31;;;;;;;3.88;3.58;;;;;;;;;;4812035;29;32527;-68
2021/12/16 13:10:08;;;;;;;3.20;3.00;;;;;;;;;;4812621;29;32116;-69
2021/12/16 13:12:45;;;;;;;3.33;3.13;;;;;;;;;;4811855;29;34688;-68
2021/12/16 13:15:33;;;;;;;3.50;3.30;;;;;;;;;;4812142;29;32392;-69
2021/12/16 13:26:40;;;;;;;3.33;2.60;;;;;;;;;;4780129;29;32692;-67
2021/12/16 13:29:21;;;;;;;2.88;2.67;;;;;;;;;;4812123;29;32321;-68
2021/12/16 13:32:06;;;;;;;2.88;2.67;;;;;;;;;;4811392;29;32451;-67
2021/12/16 13:34:51;;;;;;;2.75;2.63;;;;;;;;;;4812553;29;32453;-68
2021/12/16 13:37:24;;;;;;;2.95;2.75;;;;;;;;;;4811817;29;35226;-68
2021/12/16 13:40:06;;;;;;;2.92;2.72;;;;;;;;;;4811669;29;32426;-68
2021/12/16 13:42:49;;;;;;;2.50;2.30;;;;;;;;;;4811553;29;32302;-70
2021/12/16 13:45:24;;;;;;;2.60;2.50;;;;;;;;;;4811769;29;32572;-68
2021/12/16 14:02:55;;;;;;;2.10;2.00;;;;;;;;;;4811261;29;34348;-68
2021/12/16 14:05:41;;;;;;;2.35;2.15;;;;;;;;;;4811047;29;32423;-68
2021/12/16 14:08:13;;;;;;;2.03;1.92;;;;;;;;;;4809423;29;32385;-69
2021/12/16 14:10:56;;;;;;;1.80;1.70;;;;;;;;;;4810615;29;32518;-67
2021/12/16 14:16:37;;;;;;;1.83;1.73;;;;;;;;;;4811392;29;32288;-67
2021/12/16 14:31:10;;;;;;;1.75;1.65;;;;;;;;;;4811362;29;32321;-70
2021/12/16 14:42:19;;;;;;;1.88;1.77;;;;;;;;;;4806084;29;32693;-69
2021/12/16 14:50:32;;;;;;;2.20;1.95;;;;;;;;;;4805251;29;32528;-69
2021/12/16 14:53:00;;;;;;;2.03;1.92;;;;;;;;;;4807881;29;34472;-69
2021/12/16 14:55:29;;;;;;;1.80;1.70;;;;;;;;;;4806436;29;32603;-68
2021/12/16 14:57:59;;;;;;;1.88;1.77;;;;;;;;;;4806250;29;32609;-69
2021/12/16 15:00:35;;;;;;;1.80;1.70;;;;;;;;;;4811475;29;32673;-69
2021/12/16 15:03:09;;;;;;;1.80;1.70;;;;;;;;;;4802524;29;34543;-70
2021/12/16 15:05:44;;;;;;;2.13;2.03;;;;;;;;;;4811567;29;32465;-68
2021/12/16 15:08:17;;;;;;;2.08;1.98;;;;;;;;;;4810202;29;33357;-68
2021/12/16 15:10:46;;;;;;;2.03;1.92;;;;;;;;;;4805547;29;32572;-68
2021/12/16 15:13:21;;;;;;;1.88;1.77;;;;;;;;;;4802740;29;33110;-69
2021/12/16 15:42:42;;;;;;;2.35;2.25;;;;;;;;;;4797244;29;34366;-68
2021/12/16 15:43:49;;;;;;;2.65;2.47;;;;;;;;;;4808582;29;32480;-70
2021/12/16 15:46:17;;;;;;;2.50;2.40;;;;;;;;;;4809990;29;32374;-71
2021/12/16 15:48:50;;;;;;;2.15;2.05;;;;;;;;;;4811505;29;32832;-70
2021/12/16 15:51:24;;;;;;;2.10;2.00;;;;;;;;;;4807930;29;34068;-67
2021/12/16 15:53:58;;;;;;;2.30;2.10;;;;;;;;;;4808935;29;32636;-68
2021/12/16 15:56:30;;;;;;;2.70;2.50;;;;;;;;;;4806363;29;32646;-69
2021/12/16 15:59:01;;;;;;;2.33;2.22;;;;;;;;;;4810915;29;32316;-68
2021/12/16 16:01:34;;;;;;;2.20;2.10;;;;;;;;;;4807669;29;32343;-68
2021/12/16 16:04:07;;;;;;;2.58;2.42;;;;;;;;;;4808884;29;34289;-69
2021/12/16 16:06:36;;;;;;;2.83;2.63;;;;;;;;;;4807127;29;32724;-69
2021/12/16 16:09:10;;;;;;;2.15;2.05;;;;;;;;;;4810672;29;32310;-70
2021/12/16 16:11:46;;;;;;;2.45;2.35;;;;;;;;;;4807826;29;32420;-68
2021/12/16 16:14:16;;;;;;;2.50;2.40;;;;;;;;;;4805044;29;34048;-67
2021/12/16 16:16:49;;;;;;;2.38;2.28;;;;;;;;;;4809462;29;32640;-67
2021/12/16 16:19:22;;;;;;;2.45;2.35;;;;;;;;;;4810505;29;32456;-68
2021/12/16 16:21:54;;;;;;;2.58;2.47;;;;;;;;;;4811468;29;32384;-68
2021/12/16 16:24:32;;;;;;;2.10;2.00;;;;;;;;;;4810724;29;32584;-68
2021/12/16 16:27:04;;;;;;;2.28;2.17;;;;;;;;;;4809788;29;34102;-70
2021/12/16 16:29:34;;;;;;;2.90;2.70;;;;;;;;;;4808895;29;32540;-69
2021/12/16 16:32:05;;;;;;;2.57;2.47;;;;;;;;;;4810495;29;32628;-69
2021/12/16 16:34:41;;;;;;;2.35;2.25;;;;;;;;;;4808934;29;32466;-68
2021/12/16 16:37:12;;;;;;;2.78;2.58;;;;;;;;;;4810449;29;34906;-68
2021/12/16 16:39:43;;;;;;;2.90;2.70;;;;;;;;;;4810964;29;32467;-67
2021/12/16 16:42:14;;;;;;;2.58;2.47;;;;;;;;;;4792679;29;32444;-69
2021/12/16 16:44:46;;;;;;;2.30;2.20;;;;;;;;;;4810111;29;32626;-70
2021/12/16 16:47:28;;;;;;;2.30;2.20;;;;;;;;;;4810810;29;32396;-69
2021/12/16 16:49:57;;;;;;;2.40;2.22;;;;;;;;;;4809192;29;34361;-69
2021/12/16 16:52:31;;;;;;;2.78;2.67;;;;;;;;;;4809104;29;32550;-70
2021/12/16 16:55:08;;;;;;;2.22;2.13;;;;;;;;;;4809838;29;32490;-70
2021/12/16 16:57:39;;;;;;;2.75;2.65;;;;;;;;;;4810054;29;32403;-69
2021/12/16 17:00:14;;;;;;;2.95;2.75;;;;;;;;;;4810575;29;35205;-69
2021/12/16 17:02:45;;;;;;;2.75;2.58;;;;;;;;;;4808281;29;32543;-69
2021/12/16 17:05:19;;;;;;;3.03;2.83;;;;;;;;;;4808178;29;32389;-67
2021/12/16 17:07:54;;;;;;;2.45;2.35;;;;;;;;;;4807641;29;32645;-67
2021/12/16 17:10:28;;;;;;;2.40;2.30;;;;;;;;;;4808988;29;32625;-66
2021/12/16 17:13:09;;;;;;;2.50;2.30;;;;;;;;;;4808056;29;35125;-67
2021/12/16 17:15:43;;;;;;;2.63;2.53;;;;;;;;;;4803835;29;32681;-68
2021/12/16 17:18:22;;;;;;;2.40;2.30;;;;;;;;;;4808901;29;32524;-68
2021/12/16 17:20:52;;;;;;;2.45;2.30;;;;;;;;;;4807257;29;32437;-68
2021/12/16 17:23:23;;;;;;;2.33;2.22;;;;;;;;;;4807079;29;35224;-69
2021/12/16 17:25:51;;;;;;;2.50;2.40;;;;;;;;;;4805881;29;32885;-68
2021/12/16 17:28:19;;;;;;;2.70;2.50;;;;;;;;;;4806807;29;32467;-68
2021/12/16 17:30:48;;;;;;;2.72;2.63;;;;;;;;;;4792712;29;32553;-69
2021/12/16 17:33:26;;;;;;;2.17;2.08;;;;;;;;;;4807003;29;32574;-66
2021/12/16 17:35:55;;;;;;;2.28;2.17;;;;;;;;;;4801680;29;35334;-69
2021/12/16 17:38:28;;;;;;;2.47;2.28;;;;;;;;;;4808905;29;32491;-67
2021/12/16 17:40:59;;;;;;;2.58;2.47;;;;;;;;;;4809658;29;32303;-67
2021/12/16 17:43:30;;;;;;;2.42;2.33;;;;;;;;;;4809827;29;32896;-68
2021/12/16 17:46:04;;;;;;;2.00;1.90;;;;;;;;;;4809994;29;34053;-68
2021/12/16 17:48:36;;;;;;;2.67;2.47;;;;;;;;;;4810292;29;32259;-68
2021/12/16 17:51:10;;;;;;;2.33;2.13;;;;;;;;;;4810421;29;32364;-68
2021/12/16 17:53:46;;;;;;;1.90;1.80;;;;;;;;;;4809732;29;32579;-68
2021/12/16 17:56:14;;;;;;;2.38;2.25;;;;;;;;;;4810678;29;32447;-69
2021/12/16 17:58:50;;;;;;;1.90;1.80;;;;;;;;;;4810028;29;34373;-68
2021/12/16 18:01:22;;;;;;;2.38;2.28;;;;;;;;;;4808936;29;32473;-67
2021/12/16 18:03:55;;;;;;;1.88;1.77;;;;;;;;;;4807220;29;32478;-68
2021/12/16 18:06:28;;;;;;;2.45;2.28;;;;;;;;;;4809317;29;32529;-68
2021/12/16 18:09:08;;;;;;;1.95;1.85;;;;;;;;;;4810231;29;35144;-68
2021/12/16 18:11:45;;;;;;;2.13;2.03;;;;;;;;;;4802093;29;32649;-68
2021/12/16 18:14:23;;;;;;;1.80;1.70;;;;;;;;;;4810180;29;32375;-67
2021/12/16 18:16:56;;;;;;;2.00;1.90;;;;;;;;;;4810316;29;32460;-68
2021/12/16 18:19:31;;;;;;;2.60;2.50;;;;;;;;;;4807352;29;32448;-68
2021/12/16 18:22:05;;;;;;;3.33;3.00;;;;;;;;;;4807694;29;35566;-68
2021/12/16 18:24:40;;;;;;;2.45;2.35;;;;;;;;;;4810211;29;32215;-68
2021/12/16 18:27:20;;;;;;;2.42;2.33;;;;;;;;;;4809639;29;32430;-68
2021/12/16 18:29:48;;;;;;;2.67;2.47;;;;;;;;;;4810948;29;32459;-68